sensor_id;sensor_type;location;lat;lon;timestamp;P1;P2;P0
76661;PMS5003;65579;45.534;6.212;2023-04-25T00:00:11;7;5;
76661;PMS5003;65579;45.534;6.212;2023-04-25T00:02:36;7;5;
76661;PMS5003;65579;45.534;6.212;2023-04-25T00:05:01;6;6;
76661;PMS5003;65579;45.534;6.212;2023-04-25T00:07:26;5;5;
76661;PMS5003;65579;45.534;6.212;2023-04-25T00:09:52;5;4;
76661;PMS5003;65579;45.534;6.212;2023-04-25T00:12:17;6;6;
76661;PMS5003;65579;45.534;6.212;2023-04-25T00:14:42;7;7;
76661;PMS5003;65579;45.534;6.212;2023-04-25T00:17:08;6;6;
76661;PMS5003;65579;45.534;6.212;2023-04-25T00:19:33;8;6;
76661;PMS5003;65579;45.534;6.212;2023-04-25T00:21:58;7;7;
76661;PMS5003;65579;45.534;6.212;2023-04-25T00:24:23;6;6;
76661;PMS5003;65579;45.534;6.212;2023-04-25T00:26:48;7;4;
76661;PMS5003;65579;45.534;6.212;2023-04-25T00:29:13;8;8;
76661;PMS5003;65579;45.534;6.212;2023-04-25T00:31:39;6;6;
76661;PMS5003;65579;45.534;6.212;2023-04-25T00:34:05;7;7;
76661;PMS5003;65579;45.534;6.212;2023-04-25T00:36:29;6;6;
76661;PMS5003;65579;45.534;6.212;2023-04-25T00:38:55;6;6;
76661;PMS5003;65579;45.534;6.212;2023-04-25T00:41:20;7;6;
76661;PMS5003;65579;45.534;6.212;2023-04-25T00:43:45;9;7;
76661;PMS5003;65579;45.534;6.212;2023-04-25T00:46:10;8;8;
76661;PMS5003;65579;45.534;6.212;2023-04-25T00:48:35;8;8;
76661;PMS5003;65579;45.534;6.212;2023-04-25T00:51:01;7;7;
76661;PMS5003;65579;45.534;6.212;2023-04-25T00:53:27;6;6;
76661;PMS5003;65579;45.534;6.212;2023-04-25T00:55:51;8;8;
76661;PMS5003;65579;45.534;6.212;2023-04-25T00:58:16;10;9;
76661;PMS5003;65579;45.534;6.212;2023-04-25T01:00:42;6;6;
76661;PMS5003;65579;45.534;6.212;2023-04-25T01:03:07;7;7;
76661;PMS5003;65579;45.534;6.212;2023-04-25T01:05:32;9;5;
76661;PMS5003;65579;45.534;6.212;2023-04-25T01:07:57;9;7;
76661;PMS5003;65579;45.534;6.212;2023-04-25T01:10:23;7;7;
76661;PMS5003;65579;45.534;6.212;2023-04-25T01:12:48;9;7;
76661;PMS5003;65579;45.534;6.212;2023-04-25T01:15:14;6;5;
76661;PMS5003;65579;45.534;6.212;2023-04-25T01:17:39;7;7;
76661;PMS5003;65579;45.534;6.212;2023-04-25T01:20:04;6;6;
76661;PMS5003;65579;45.534;6.212;2023-04-25T01:22:29;6;6;
76661;PMS5003;65579;45.534;6.212;2023-04-25T01:24:54;8;7;
76661;PMS5003;65579;45.534;6.212;2023-04-25T01:27:20;7;7;
76661;PMS5003;65579;45.534;6.212;2023-04-25T01:29:46;7;7;
76661;PMS5003;65579;45.534;6.212;2023-04-25T01:32:11;8;8;
76661;PMS5003;65579;45.534;6.212;2023-04-25T01:34:36;7;6;
76661;PMS5003;65579;45.534;6.212;2023-04-25T01:37:01;6;6;
76661;PMS5003;65579;45.534;6.212;2023-04-25T01:39:27;8;8;
76661;PMS5003;65579;45.534;6.212;2023-04-25T01:41:52;8;8;
76661;PMS5003;65579;45.534;6.212;2023-04-25T01:44:17;7;7;
76661;PMS5003;65579;45.534;6.212;2023-04-25T01:46:43;9;9;
76661;PMS5003;65579;45.534;6.212;2023-04-25T01:49:08;6;5;
76661;PMS5003;65579;45.534;6.212;2023-04-25T01:51:34;5;4;
76661;PMS5003;65579;45.534;6.212;2023-04-25T01:53:59;6;6;
76661;PMS5003;65579;45.534;6.212;2023-04-25T01:56:24;7;7;
76661;PMS5003;65579;45.534;6.212;2023-04-25T01:58:49;7;7;
76661;PMS5003;65579;45.534;6.212;2023-04-25T02:01:15;6;6;
76661;PMS5003;65579;45.534;6.212;2023-04-25T02:03:40;5;5;
76661;PMS5003;65579;45.534;6.212;2023-04-25T02:06:06;6;6;
76661;PMS5003;65579;45.534;6.212;2023-04-25T02:08:31;6;6;
76661;PMS5003;65579;45.534;6.212;2023-04-25T02:10:56;7;7;
76661;PMS5003;65579;45.534;6.212;2023-04-25T02:13:21;9;7;
76661;PMS5003;65579;45.534;6.212;2023-04-25T02:15:47;8;8;
76661;PMS5003;65579;45.534;6.212;2023-04-25T02:18:12;8;7;
76661;PMS5003;65579;45.534;6.212;2023-04-25T02:20:37;7;5;
76661;PMS5003;65579;45.534;6.212;2023-04-25T02:23:03;7;7;
76661;PMS5003;65579;45.534;6.212;2023-04-25T02:25:28;8;5;
76661;PMS5003;65579;45.534;6.212;2023-04-25T02:27:54;5;5;
76661;PMS5003;65579;45.534;6.212;2023-04-25T02:30:19;4;4;
76661;PMS5003;65579;45.534;6.212;2023-04-25T02:32:44;6;6;
76661;PMS5003;65579;45.534;6.212;2023-04-25T02:35:09;7;7;
76661;PMS5003;65579;45.534;6.212;2023-04-25T02:37:38;7;7;
76661;PMS5003;65579;45.534;6.212;2023-04-25T02:40:00;5;5;
76661;PMS5003;65579;45.534;6.212;2023-04-25T02:42:25;9;8;
76661;PMS5003;65579;45.534;6.212;2023-04-25T02:44:51;7;7;
76661;PMS5003;65579;45.534;6.212;2023-04-25T02:47:16;7;7;
76661;PMS5003;65579;45.534;6.212;2023-04-25T02:49:41;10;9;
76661;PMS5003;65579;45.534;6.212;2023-04-25T02:52:07;10;7;
76661;PMS5003;65579;45.534;6.212;2023-04-25T02:54:32;8;6;
76661;PMS5003;65579;45.534;6.212;2023-04-25T02:56:58;7;7;
76661;PMS5003;65579;45.534;6.212;2023-04-25T02:59:23;9;8;
76661;PMS5003;65579;45.534;6.212;2023-04-25T03:01:48;8;5;
76661;PMS5003;65579;45.534;6.212;2023-04-25T03:04:13;7;7;
76661;PMS5003;65579;45.534;6.212;2023-04-25T03:06:39;8;7;
76661;PMS5003;65579;45.534;6.212;2023-04-25T03:09:04;6;6;
76661;PMS5003;65579;45.534;6.212;2023-04-25T03:11:29;4;4;
76661;PMS5003;65579;45.534;6.212;2023-04-25T03:13:54;5;5;
76661;PMS5003;65579;45.534;6.212;2023-04-25T03:16:20;7;7;
76661;PMS5003;65579;45.534;6.212;2023-04-25T03:18:45;7;7;
76661;PMS5003;65579;45.534;6.212;2023-04-25T03:21:10;9;9;
76661;PMS5003;65579;45.534;6.212;2023-04-25T03:23:36;10;9;
76661;PMS5003;65579;45.534;6.212;2023-04-25T03:26:01;10;10;
76661;PMS5003;65579;45.534;6.212;2023-04-25T03:28:26;8;8;
76661;PMS5003;65579;45.534;6.212;2023-04-25T03:30:51;13;12;
76661;PMS5003;65579;45.534;6.212;2023-04-25T03:33:17;9;9;
76661;PMS5003;65579;45.534;6.212;2023-04-25T03:35:42;7;7;
76661;PMS5003;65579;45.534;6.212;2023-04-25T03:38:08;9;8;
76661;PMS5003;65579;45.534;6.212;2023-04-25T03:40:33;7;6;
76661;PMS5003;65579;45.534;6.212;2023-04-25T03:42:58;8;8;
76661;PMS5003;65579;45.534;6.212;2023-04-25T03:45:24;9;9;
76661;PMS5003;65579;45.534;6.212;2023-04-25T03:47:50;7;7;
76661;PMS5003;65579;45.534;6.212;2023-04-25T03:50:15;10;10;
76661;PMS5003;65579;45.534;6.212;2023-04-25T03:52:40;8;8;
76661;PMS5003;65579;45.534;6.212;2023-04-25T03:55:06;8;8;
76661;PMS5003;65579;45.534;6.212;2023-04-25T03:57:31;8;8;
76661;PMS5003;65579;45.534;6.212;2023-04-25T03:59:56;10;8;
76661;PMS5003;65579;45.534;6.212;2023-04-25T04:02:21;7;7;
76661;PMS5003;65579;45.534;6.212;2023-04-25T04:04:46;6;6;
76661;PMS5003;65579;45.534;6.212;2023-04-25T04:07:12;8;7;
76661;PMS5003;65579;45.534;6.212;2023-04-25T04:09:37;9;9;
76661;PMS5003;65579;45.534;6.212;2023-04-25T04:12:02;9;9;
76661;PMS5003;65579;45.534;6.212;2023-04-25T04:14:28;8;6;
76661;PMS5003;65579;45.534;6.212;2023-04-25T04:16:52;7;7;
76661;PMS5003;65579;45.534;6.212;2023-04-25T04:19:18;7;7;
76661;PMS5003;65579;45.534;6.212;2023-04-25T04:21:43;9;7;
76661;PMS5003;65579;45.534;6.212;2023-04-25T04:24:08;8;8;
76661;PMS5003;65579;45.534;6.212;2023-04-25T04:26:34;8;8;
76661;PMS5003;65579;45.534;6.212;2023-04-25T04:28:59;9;8;
76661;PMS5003;65579;45.534;6.212;2023-04-25T04:31:24;10;9;
76661;PMS5003;65579;45.534;6.212;2023-04-25T04:33:49;9;8;
76661;PMS5003;65579;45.534;6.212;2023-04-25T04:36:15;6;6;
76661;PMS5003;65579;45.534;6.212;2023-04-25T04:38:40;8;8;
76661;PMS5003;65579;45.534;6.212;2023-04-25T04:41:05;8;8;
76661;PMS5003;65579;45.534;6.212;2023-04-25T04:43:31;10;10;
76661;PMS5003;65579;45.534;6.212;2023-04-25T04:45:56;9;8;
76661;PMS5003;65579;45.534;6.212;2023-04-25T04:48:22;12;10;
76661;PMS5003;65579;45.534;6.212;2023-04-25T04:50:47;12;12;
76661;PMS5003;65579;45.534;6.212;2023-04-25T04:53:12;11;11;
76661;PMS5003;65579;45.534;6.212;2023-04-25T04:55:37;12;10;
76661;PMS5003;65579;45.534;6.212;2023-04-25T04:58:03;16;14;
76661;PMS5003;65579;45.534;6.212;2023-04-25T05:00:29;13;11;
76661;PMS5003;65579;45.534;6.212;2023-04-25T05:02:54;13;13;
76661;PMS5003;65579;45.534;6.212;2023-04-25T05:05:19;14;13;
76661;PMS5003;65579;45.534;6.212;2023-04-25T05:07:44;13;13;
76661;PMS5003;65579;45.534;6.212;2023-04-25T05:10:10;14;12;
76661;PMS5003;65579;45.534;6.212;2023-04-25T05:12:35;16;14;
76661;PMS5003;65579;45.534;6.212;2023-04-25T05:15:00;13;13;
76661;PMS5003;65579;45.534;6.212;2023-04-25T05:17:26;12;12;
76661;PMS5003;65579;45.534;6.212;2023-04-25T05:19:51;16;14;
76661;PMS5003;65579;45.534;6.212;2023-04-25T05:22:17;16;14;
76661;PMS5003;65579;45.534;6.212;2023-04-25T05:24:42;12;12;
76661;PMS5003;65579;45.534;6.212;2023-04-25T05:27:08;10;10;
76661;PMS5003;65579;45.534;6.212;2023-04-25T05:29:33;8;8;
76661;PMS5003;65579;45.534;6.212;2023-04-25T05:31:58;12;12;
76661;PMS5003;65579;45.534;6.212;2023-04-25T05:34:23;9;9;
76661;PMS5003;65579;45.534;6.212;2023-04-25T05:36:49;11;11;
76661;PMS5003;65579;45.534;6.212;2023-04-25T05:39:14;12;12;
76661;PMS5003;65579;45.534;6.212;2023-04-25T05:41:39;15;13;
76661;PMS5003;65579;45.534;6.212;2023-04-25T05:44:04;10;10;
76661;PMS5003;65579;45.534;6.212;2023-04-25T05:46:30;13;12;
76661;PMS5003;65579;45.534;6.212;2023-04-25T05:48:55;12;11;
76661;PMS5003;65579;45.534;6.212;2023-04-25T05:51:20;10;10;
76661;PMS5003;65579;45.534;6.212;2023-04-25T05:53:45;11;11;
76661;PMS5003;65579;45.534;6.212;2023-04-25T05:56:12;15;15;
76661;PMS5003;65579;45.534;6.212;2023-04-25T05:58:36;10;10;
76661;PMS5003;65579;45.534;6.212;2023-04-25T06:01:02;13;13;
76661;PMS5003;65579;45.534;6.212;2023-04-25T06:03:28;15;15;
76661;PMS5003;65579;45.534;6.212;2023-04-25T06:05:53;11;11;
76661;PMS5003;65579;45.534;6.212;2023-04-25T06:08:18;17;15;
76661;PMS5003;65579;45.534;6.212;2023-04-25T06:10:43;12;12;
76661;PMS5003;65579;45.534;6.212;2023-04-25T06:13:09;13;13;
76661;PMS5003;65579;45.534;6.212;2023-04-25T06:15:35;10;10;
76661;PMS5003;65579;45.534;6.212;2023-04-25T06:18:00;18;15;
76661;PMS5003;65579;45.534;6.212;2023-04-25T06:20:26;13;13;
76661;PMS5003;65579;45.534;6.212;2023-04-25T06:22:51;15;14;
76661;PMS5003;65579;45.534;6.212;2023-04-25T06:25:16;15;15;
76661;PMS5003;65579;45.534;6.212;2023-04-25T06:27:41;14;13;
76661;PMS5003;65579;45.534;6.212;2023-04-25T06:30:09;14;14;
76661;PMS5003;65579;45.534;6.212;2023-04-25T06:32:33;19;18;
76661;PMS5003;65579;45.534;6.212;2023-04-25T06:34:58;11;11;
76661;PMS5003;65579;45.534;6.212;2023-04-25T06:37:23;13;11;
76661;PMS5003;65579;45.534;6.212;2023-04-25T06:39:49;14;14;
76661;PMS5003;65579;45.534;6.212;2023-04-25T06:42:14;12;12;
76661;PMS5003;65579;45.534;6.212;2023-04-25T06:44:41;13;12;
76661;PMS5003;65579;45.534;6.212;2023-04-25T06:47:06;13;13;
76661;PMS5003;65579;45.534;6.212;2023-04-25T06:49:32;12;12;
76661;PMS5003;65579;45.534;6.212;2023-04-25T06:51:58;13;11;
76661;PMS5003;65579;45.534;6.212;2023-04-25T06:54:24;16;16;
76661;PMS5003;65579;45.534;6.212;2023-04-25T06:56:49;11;11;
76661;PMS5003;65579;45.534;6.212;2023-04-25T06:59:15;16;15;
76661;PMS5003;65579;45.534;6.212;2023-04-25T07:01:40;9;9;
76661;PMS5003;65579;45.534;6.212;2023-04-25T07:04:06;12;11;
76661;PMS5003;65579;45.534;6.212;2023-04-25T07:06:31;14;13;
76661;PMS5003;65579;45.534;6.212;2023-04-25T07:08:57;13;12;
76661;PMS5003;65579;45.534;6.212;2023-04-25T07:11:22;13;11;
76661;PMS5003;65579;45.534;6.212;2023-04-25T07:13:47;13;13;
76661;PMS5003;65579;45.534;6.212;2023-04-25T07:16:13;12;12;
76661;PMS5003;65579;45.534;6.212;2023-04-25T07:18:38;12;11;
76661;PMS5003;65579;45.534;6.212;2023-04-25T07:21:03;13;13;
76661;PMS5003;65579;45.534;6.212;2023-04-25T07:23:29;10;9;
76661;PMS5003;65579;45.534;6.212;2023-04-25T07:25:55;12;11;
76661;PMS5003;65579;45.534;6.212;2023-04-25T07:28:20;9;9;
76661;PMS5003;65579;45.534;6.212;2023-04-25T07:30:45;12;10;
76661;PMS5003;65579;45.534;6.212;2023-04-25T07:33:10;14;12;
76661;PMS5003;65579;45.534;6.212;2023-04-25T07:35:36;10;10;
76661;PMS5003;65579;45.534;6.212;2023-04-25T07:38:02;13;11;
76661;PMS5003;65579;45.534;6.212;2023-04-25T07:40:27;8;8;
76661;PMS5003;65579;45.534;6.212;2023-04-25T07:42:52;15;13;
76661;PMS5003;65579;45.534;6.212;2023-04-25T07:45:17;12;11;
76661;PMS5003;65579;45.534;6.212;2023-04-25T07:47:43;12;10;
76661;PMS5003;65579;45.534;6.212;2023-04-25T07:50:08;12;11;
76661;PMS5003;65579;45.534;6.212;2023-04-25T07:52:33;7;7;
76661;PMS5003;65579;45.534;6.212;2023-04-25T07:54:59;10;9;
76661;PMS5003;65579;45.534;6.212;2023-04-25T07:57:24;9;9;
76661;PMS5003;65579;45.534;6.212;2023-04-25T07:59:49;10;10;
76661;PMS5003;65579;45.534;6.212;2023-04-25T08:02:15;12;11;
76661;PMS5003;65579;45.534;6.212;2023-04-25T08:04:40;8;8;
76661;PMS5003;65579;45.534;6.212;2023-04-25T08:07:05;8;8;
76661;PMS5003;65579;45.534;6.212;2023-04-25T08:09:31;10;10;
76661;PMS5003;65579;45.534;6.212;2023-04-25T08:11:57;11;11;
76661;PMS5003;65579;45.534;6.212;2023-04-25T08:14:23;9;9;
76661;PMS5003;65579;45.534;6.212;2023-04-25T08:16:48;9;9;
76661;PMS5003;65579;45.534;6.212;2023-04-25T08:19:14;12;11;
76661;PMS5003;65579;45.534;6.212;2023-04-25T08:21:39;11;11;
76661;PMS5003;65579;45.534;6.212;2023-04-25T08:24:04;9;9;
76661;PMS5003;65579;45.534;6.212;2023-04-25T08:26:30;9;9;
76661;PMS5003;65579;45.534;6.212;2023-04-25T08:28:55;10;10;
76661;PMS5003;65579;45.534;6.212;2023-04-25T08:31:21;10;9;
76661;PMS5003;65579;45.534;6.212;2023-04-25T08:33:46;14;14;
76661;PMS5003;65579;45.534;6.212;2023-04-25T08:36:12;12;12;
76661;PMS5003;65579;45.534;6.212;2023-04-25T08:38:37;13;13;
76661;PMS5003;65579;45.534;6.212;2023-04-25T08:41:03;10;10;
76661;PMS5003;65579;45.534;6.212;2023-04-25T08:43:29;14;13;
76661;PMS5003;65579;45.534;6.212;2023-04-25T08:45:54;9;9;
76661;PMS5003;65579;45.534;6.212;2023-04-25T08:48:18;8;8;
76661;PMS5003;65579;45.534;6.212;2023-04-25T08:50:45;12;10;
76661;PMS5003;65579;45.534;6.212;2023-04-25T08:53:09;12;12;
76661;PMS5003;65579;45.534;6.212;2023-04-25T08:55:35;11;9;
76661;PMS5003;65579;45.534;6.212;2023-04-25T08:58:00;10;10;
76661;PMS5003;65579;45.534;6.212;2023-04-25T09:00:26;10;10;
76661;PMS5003;65579;45.534;6.212;2023-04-25T09:02:51;12;12;
76661;PMS5003;65579;45.534;6.212;2023-04-25T09:05:17;10;10;
76661;PMS5003;65579;45.534;6.212;2023-04-25T09:07:42;13;11;
76661;PMS5003;65579;45.534;6.212;2023-04-25T09:10:08;10;10;
76661;PMS5003;65579;45.534;6.212;2023-04-25T09:12:33;12;12;
76661;PMS5003;65579;45.534;6.212;2023-04-25T09:15:03;9;9;
76661;PMS5003;65579;45.534;6.212;2023-04-25T09:17:24;11;11;
76661;PMS5003;65579;45.534;6.212;2023-04-25T09:19:49;10;10;
76661;PMS5003;65579;45.534;6.212;2023-04-25T09:22:14;12;11;
76661;PMS5003;65579;45.534;6.212;2023-04-25T09:24:40;11;10;
76661;PMS5003;65579;45.534;6.212;2023-04-25T09:27:05;10;8;
76661;PMS5003;65579;45.534;6.212;2023-04-25T09:29:31;11;11;
76661;PMS5003;65579;45.534;6.212;2023-04-25T09:34:21;8;8;
76661;PMS5003;65579;45.534;6.212;2023-04-25T09:36:46;13;11;
76661;PMS5003;65579;45.534;6.212;2023-04-25T09:39:12;10;10;
76661;PMS5003;65579;45.534;6.212;2023-04-25T09:41:37;8;8;
76661;PMS5003;65579;45.534;6.212;2023-04-25T09:44:02;10;10;
76661;PMS5003;65579;45.534;6.212;2023-04-25T09:46:32;8;8;
76661;PMS5003;65579;45.534;6.212;2023-04-25T09:48:52;12;9;
76661;PMS5003;65579;45.534;6.212;2023-04-25T09:51:17;7;7;
76661;PMS5003;65579;45.534;6.212;2023-04-25T09:53:43;12;10;
76661;PMS5003;65579;45.534;6.212;2023-04-25T09:56:08;10;9;
76661;PMS5003;65579;45.534;6.212;2023-04-25T09:58:33;12;12;
76661;PMS5003;65579;45.534;6.212;2023-04-25T10:00:59;10;10;
76661;PMS5003;65579;45.534;6.212;2023-04-25T10:03:23;9;9;
76661;PMS5003;65579;45.534;6.212;2023-04-25T10:05:49;9;9;
76661;PMS5003;65579;45.534;6.212;2023-04-25T10:08:14;10;10;
76661;PMS5003;65579;45.534;6.212;2023-04-25T10:10:40;9;9;
76661;PMS5003;65579;45.534;6.212;2023-04-25T10:13:05;8;8;
76661;PMS5003;65579;45.534;6.212;2023-04-25T10:15:31;10;10;
76661;PMS5003;65579;45.534;6.212;2023-04-25T10:17:56;14;12;
76661;PMS5003;65579;45.534;6.212;2023-04-25T10:20:22;6;6;
76661;PMS5003;65579;45.534;6.212;2023-04-25T10:22:47;11;11;
76661;PMS5003;65579;45.534;6.212;2023-04-25T10:25:12;9;9;
76661;PMS5003;65579;45.534;6.212;2023-04-25T10:27:38;8;8;
76661;PMS5003;65579;45.534;6.212;2023-04-25T10:30:03;11;9;
76661;PMS5003;65579;45.534;6.212;2023-04-25T10:32:28;7;7;
76661;PMS5003;65579;45.534;6.212;2023-04-25T10:34:53;9;8;
76661;PMS5003;65579;45.534;6.212;2023-04-25T10:37:18;9;9;
76661;PMS5003;65579;45.534;6.212;2023-04-25T10:39:43;9;6;
76661;PMS5003;65579;45.534;6.212;2023-04-25T10:42:09;11;9;
76661;PMS5003;65579;45.534;6.212;2023-04-25T10:44:34;9;9;
76661;PMS5003;65579;45.534;6.212;2023-04-25T10:46:59;5;5;
76661;PMS5003;65579;45.534;6.212;2023-04-25T10:49:32;7;6;
76661;PMS5003;65579;45.534;6.212;2023-04-25T10:51:50;9;9;
76661;PMS5003;65579;45.534;6.212;2023-04-25T10:54:15;6;6;
76661;PMS5003;65579;45.534;6.212;2023-04-25T10:56:41;4;4;
76661;PMS5003;65579;45.534;6.212;2023-04-25T10:59:06;10;10;
76661;PMS5003;65579;45.534;6.212;2023-04-25T11:01:35;6;6;
76661;PMS5003;65579;45.534;6.212;2023-04-25T11:03:57;6;6;
76661;PMS5003;65579;45.534;6.212;2023-04-25T11:06:22;9;9;
76661;PMS5003;65579;45.534;6.212;2023-04-25T11:08:48;5;5;
76661;PMS5003;65579;45.534;6.212;2023-04-25T11:11:13;8;7;
76661;PMS5003;65579;45.534;6.212;2023-04-25T11:13:37;6;6;
76661;PMS5003;65579;45.534;6.212;2023-04-25T11:16:02;5;5;
76661;PMS5003;65579;45.534;6.212;2023-04-25T11:18:27;10;9;
76661;PMS5003;65579;45.534;6.212;2023-04-25T11:20:53;6;6;
76661;PMS5003;65579;45.534;6.212;2023-04-25T11:23:18;6;6;
76661;PMS5003;65579;45.534;6.212;2023-04-25T11:25:43;7;7;
76661;PMS5003;65579;45.534;6.212;2023-04-25T11:28:08;9;9;
76661;PMS5003;65579;45.534;6.212;2023-04-25T11:30:33;8;8;
76661;PMS5003;65579;45.534;6.212;2023-04-25T11:32:58;9;9;
76661;PMS5003;65579;45.534;6.212;2023-04-25T11:35:23;11;8;
76661;PMS5003;65579;45.534;6.212;2023-04-25T11:37:49;8;8;
76661;PMS5003;65579;45.534;6.212;2023-04-25T11:40:14;10;9;
76661;PMS5003;65579;45.534;6.212;2023-04-25T11:42:39;7;7;
76661;PMS5003;65579;45.534;6.212;2023-04-25T11:45:05;8;8;
76661;PMS5003;65579;45.534;6.212;2023-04-25T11:47:30;7;7;
76661;PMS5003;65579;45.534;6.212;2023-04-25T11:49:54;9;9;
76661;PMS5003;65579;45.534;6.212;2023-04-25T11:52:20;7;7;
76661;PMS5003;65579;45.534;6.212;2023-04-25T11:54:45;6;6;
76661;PMS5003;65579;45.534;6.212;2023-04-25T11:57:10;7;7;
76661;PMS5003;65579;45.534;6.212;2023-04-25T11:59:35;9;8;
76661;PMS5003;65579;45.534;6.212;2023-04-25T12:02:00;8;7;
76661;PMS5003;65579;45.534;6.212;2023-04-25T12:04:25;5;5;
76661;PMS5003;65579;45.534;6.212;2023-04-25T12:06:51;6;6;
76661;PMS5003;65579;45.534;6.212;2023-04-25T12:09:16;8;7;
76661;PMS5003;65579;45.534;6.212;2023-04-25T12:11:40;10;8;
76661;PMS5003;65579;45.534;6.212;2023-04-25T12:14:06;9;9;
76661;PMS5003;65579;45.534;6.212;2023-04-25T12:18:56;8;8;
76661;PMS5003;65579;45.534;6.212;2023-04-25T12:21:21;7;7;
76661;PMS5003;65579;45.534;6.212;2023-04-25T12:23:46;5;5;
76661;PMS5003;65579;45.534;6.212;2023-04-25T12:26:12;5;5;
76661;PMS5003;65579;45.534;6.212;2023-04-25T12:28:37;7;7;
76661;PMS5003;65579;45.534;6.212;2023-04-25T12:31:03;5;5;
76661;PMS5003;65579;45.534;6.212;2023-04-25T12:33:28;6;6;
76661;PMS5003;65579;45.534;6.212;2023-04-25T12:35:52;7;7;
76661;PMS5003;65579;45.534;6.212;2023-04-25T12:38:21;7;7;
76661;PMS5003;65579;45.534;6.212;2023-04-25T12:40:42;6;5;
76661;PMS5003;65579;45.534;6.212;2023-04-25T12:43:08;10;8;
76661;PMS5003;65579;45.534;6.212;2023-04-25T12:45:32;7;7;
76661;PMS5003;65579;45.534;6.212;2023-04-25T12:47:57;6;5;
76661;PMS5003;65579;45.534;6.212;2023-04-25T12:50:23;9;8;
76661;PMS5003;65579;45.534;6.212;2023-04-25T12:52:48;7;7;
76661;PMS5003;65579;45.534;6.212;2023-04-25T12:55:13;6;6;
76661;PMS5003;65579;45.534;6.212;2023-04-25T12:57:38;7;7;
76661;PMS5003;65579;45.534;6.212;2023-04-25T13:00:03;8;8;
76661;PMS5003;65579;45.534;6.212;2023-04-25T13:02:28;6;6;
76661;PMS5003;65579;45.534;6.212;2023-04-25T13:04:53;9;8;
76661;PMS5003;65579;45.534;6.212;2023-04-25T13:07:18;7;7;
76661;PMS5003;65579;45.534;6.212;2023-04-25T13:09:43;8;7;
76661;PMS5003;65579;45.534;6.212;2023-04-25T13:12:08;9;7;
76661;PMS5003;65579;45.534;6.212;2023-04-25T13:14:33;6;6;
76661;PMS5003;65579;45.534;6.212;2023-04-25T13:16:58;8;8;
76661;PMS5003;65579;45.534;6.212;2023-04-25T13:19:23;6;6;
76661;PMS5003;65579;45.534;6.212;2023-04-25T13:21:48;9;8;
76661;PMS5003;65579;45.534;6.212;2023-04-25T13:24:14;10;8;
76661;PMS5003;65579;45.534;6.212;2023-04-25T13:26:39;5;5;
76661;PMS5003;65579;45.534;6.212;2023-04-25T13:29:05;7;7;
76661;PMS5003;65579;45.534;6.212;2023-04-25T13:31:30;6;6;
76661;PMS5003;65579;45.534;6.212;2023-04-25T13:33:55;7;7;
76661;PMS5003;65579;45.534;6.212;2023-04-25T13:36:20;5;4;
76661;PMS5003;65579;45.534;6.212;2023-04-25T13:38:45;7;7;
76661;PMS5003;65579;45.534;6.212;2023-04-25T13:41:10;8;8;
76661;PMS5003;65579;45.534;6.212;2023-04-25T13:43:35;8;7;
76661;PMS5003;65579;45.534;6.212;2023-04-25T13:46:00;8;7;
76661;PMS5003;65579;45.534;6.212;2023-04-25T13:48:25;8;8;
76661;PMS5003;65579;45.534;6.212;2023-04-25T13:50:50;7;5;
76661;PMS5003;65579;45.534;6.212;2023-04-25T13:53:16;6;6;
76661;PMS5003;65579;45.534;6.212;2023-04-25T13:55:40;5;5;
76661;PMS5003;65579;45.534;6.212;2023-04-25T13:58:06;8;8;
76661;PMS5003;65579;45.534;6.212;2023-04-25T14:00:31;4;4;
76661;PMS5003;65579;45.534;6.212;2023-04-25T14:02:56;5;5;
76661;PMS5003;65579;45.534;6.212;2023-04-25T14:05:21;8;7;
76661;PMS5003;65579;45.534;6.212;2023-04-25T14:07:46;7;6;
76661;PMS5003;65579;45.534;6.212;2023-04-25T14:10:11;8;6;
76661;PMS5003;65579;45.534;6.212;2023-04-25T14:12:36;8;6;
76661;PMS5003;65579;45.534;6.212;2023-04-25T14:15:01;7;5;
76661;PMS5003;65579;45.534;6.212;2023-04-25T14:17:26;8;7;
76661;PMS5003;65579;45.534;6.212;2023-04-25T14:19:51;6;6;
76661;PMS5003;65579;45.534;6.212;2023-04-25T14:22:16;8;8;
76661;PMS5003;65579;45.534;6.212;2023-04-25T14:24:41;6;6;
76661;PMS5003;65579;45.534;6.212;2023-04-25T14:27:07;6;6;
76661;PMS5003;65579;45.534;6.212;2023-04-25T14:29:32;7;7;
76661;PMS5003;65579;45.534;6.212;2023-04-25T14:31:57;7;7;
76661;PMS5003;65579;45.534;6.212;2023-04-25T14:34:22;5;5;
76661;PMS5003;65579;45.534;6.212;2023-04-25T14:36:47;7;7;
76661;PMS5003;65579;45.534;6.212;2023-04-25T14:39:12;7;7;
76661;PMS5003;65579;45.534;6.212;2023-04-25T14:41:37;7;6;
76661;PMS5003;65579;45.534;6.212;2023-04-25T14:44:03;7;7;
76661;PMS5003;65579;45.534;6.212;2023-04-25T14:46:27;7;7;
76661;PMS5003;65579;45.534;6.212;2023-04-25T14:48:52;10;9;
76661;PMS5003;65579;45.534;6.212;2023-04-25T14:51:17;5;5;
76661;PMS5003;65579;45.534;6.212;2023-04-25T14:53:42;8;7;
76661;PMS5003;65579;45.534;6.212;2023-04-25T14:56:07;7;7;
76661;PMS5003;65579;45.534;6.212;2023-04-25T14:58:32;7;7;
76661;PMS5003;65579;45.534;6.212;2023-04-25T15:00:57;7;7;
76661;PMS5003;65579;45.534;6.212;2023-04-25T15:03:22;7;6;
76661;PMS5003;65579;45.534;6.212;2023-04-25T15:05:47;5;5;
76661;PMS5003;65579;45.534;6.212;2023-04-25T15:08:12;9;8;
76661;PMS5003;65579;45.534;6.212;2023-04-25T15:10:37;6;6;
76661;PMS5003;65579;45.534;6.212;2023-04-25T15:13:03;8;7;
76661;PMS5003;65579;45.534;6.212;2023-04-25T15:15:28;7;7;
76661;PMS5003;65579;45.534;6.212;2023-04-25T15:17:55;6;6;
76661;PMS5003;65579;45.534;6.212;2023-04-25T15:20:19;7;6;
76661;PMS5003;65579;45.534;6.212;2023-04-25T15:22:43;6;6;
76661;PMS5003;65579;45.534;6.212;2023-04-25T15:25:09;5;5;
76661;PMS5003;65579;45.534;6.212;2023-04-25T15:27:33;5;5;
76661;PMS5003;65579;45.534;6.212;2023-04-25T15:29:58;10;8;
76661;PMS5003;65579;45.534;6.212;2023-04-25T15:32:23;7;7;
76661;PMS5003;65579;45.534;6.212;2023-04-25T15:34:48;7;7;
76661;PMS5003;65579;45.534;6.212;2023-04-25T15:37:13;7;7;
76661;PMS5003;65579;45.534;6.212;2023-04-25T15:39:39;7;7;
76661;PMS5003;65579;45.534;6.212;2023-04-25T15:42:04;7;7;
76661;PMS5003;65579;45.534;6.212;2023-04-25T15:44:29;5;5;
76661;PMS5003;65579;45.534;6.212;2023-04-25T15:46:54;5;4;
76661;PMS5003;65579;45.534;6.212;2023-04-25T15:49:19;7;6;
76661;PMS5003;65579;45.534;6.212;2023-04-25T15:51:44;6;6;
76661;PMS5003;65579;45.534;6.212;2023-04-25T15:54:10;6;6;
76661;PMS5003;65579;45.534;6.212;2023-04-25T15:56:35;6;6;
76661;PMS5003;65579;45.534;6.212;2023-04-25T15:59:01;6;6;
76661;PMS5003;65579;45.534;6.212;2023-04-25T16:01:27;6;6;
76661;PMS5003;65579;45.534;6.212;2023-04-25T16:03:53;6;4;
76661;PMS5003;65579;45.534;6.212;2023-04-25T16:06:19;5;5;
76661;PMS5003;65579;45.534;6.212;2023-04-25T16:08:45;7;6;
76661;PMS5003;65579;45.534;6.212;2023-04-25T16:11:10;8;6;
76661;PMS5003;65579;45.534;6.212;2023-04-25T16:13:36;8;6;
76661;PMS5003;65579;45.534;6.212;2023-04-25T16:16:02;6;5;
76661;PMS5003;65579;45.534;6.212;2023-04-25T16:18:28;8;8;
76661;PMS5003;65579;45.534;6.212;2023-04-25T16:20:54;5;5;
76661;PMS5003;65579;45.534;6.212;2023-04-25T16:23:20;6;6;
76661;PMS5003;65579;45.534;6.212;2023-04-25T16:25:45;4;4;
76661;PMS5003;65579;45.534;6.212;2023-04-25T16:28:11;5;5;
76661;PMS5003;65579;45.534;6.212;2023-04-25T16:30:37;7;6;